Terminal Aerodrome Forecast
Issued by NWS Springfield, MO

Home | Current Version | Previous Version | Text Only | Print | Product List | Glossary On
Versions: 1 2 3 4 5 6 7 8 9 10 11 12 13 14 15 16 17 18 19 20 21 22 23 24
000
FTUS43 KSGF 192000 AAA
TAFSGF
TAF AMD
KSGF 192022Z 1920/2018 30012G18KT P6SM SCT030 BKN040
     FM192100 27010KT P6SM -SHRA BKN035
      TEMPO 1921/1923 VRB25KT 4SM -TSRA BR BKN030CB
     FM200300 32014G23KT P6SM OVC015
     FM201300 32010G18KT P6SM SKC=

USA.gov is the U.S. government's official web portal to all federal, state and local government web resources and services.